createdAt,value
2023-02-19T00:01:43.827Z,41.22
2023-02-19T00:04:19.609Z,40.03
2023-02-19T00:06:47.532Z,41.53
2023-02-19T00:09:15.602Z,40.40
2023-02-19T00:11:44.086Z,39.45
2023-02-19T00:14:14.650Z,44.85
2023-02-19T00:16:41.236Z,44.67
2023-02-19T00:19:11.824Z,36.90
2023-02-19T00:21:38.426Z,36.72
2023-02-19T00:24:06.614Z,40.75
2023-02-19T00:26:34.232Z,36.30
2023-02-19T00:29:01.388Z,40.57
2023-02-19T00:31:35.939Z,35.25
2023-02-19T00:34:05.906Z,35.97
2023-02-19T00:36:35.924Z,33.20
2023-02-19T00:39:02.562Z,35.13
2023-02-19T00:41:30.475Z,31.57
2023-02-19T00:44:02.018Z,30.90
2023-02-19T00:46:34.345Z,29.52
2023-02-19T00:49:03.170Z,29.33
2023-02-19T00:51:32.978Z,29.80
2023-02-19T00:54:00.055Z,26.83
2023-02-19T00:56:27.045Z,30.52
2023-02-19T00:58:54.029Z,31.48
2023-02-19T01:01:20.894Z,29.40
2023-02-19T01:03:48.083Z,34.85
2023-02-19T01:06:17.583Z,29.07
2023-02-19T01:08:44.783Z,36.20
2023-02-19T01:11:12.255Z,28.17
2023-02-19T01:13:39.831Z,30.92
2023-02-19T01:16:14.326Z,28.60
2023-02-19T01:18:41.393Z,23.37
2023-02-19T01:21:10.133Z,30.02
2023-02-19T01:23:37.059Z,23.88
2023-02-19T01:26:08.671Z,28.17
2023-02-19T01:28:36.467Z,22.15
2023-02-19T01:31:05.176Z,23.20
2023-02-19T01:33:32.595Z,24.77
2023-02-19T01:35:59.583Z,23.67
2023-02-19T01:38:26.115Z,23.67
2023-02-19T01:41:00.817Z,23.27
2023-02-19T01:43:28.227Z,22.27
2023-02-19T01:45:55.078Z,26.83
2023-02-19T01:48:26.419Z,25.08
2023-02-19T01:50:58.614Z,19.67
2023-02-19T01:53:28.017Z,23.88
2023-02-19T01:55:58.722Z,20.67
2023-02-19T01:58:28.858Z,20.42
2023-02-19T02:00:55.485Z,17.88
2023-02-19T02:03:22.349Z,24.55
2023-02-19T02:06:20.826Z,23.25
2023-02-19T02:09:06.587Z,24.17
2023-02-19T02:11:33.247Z,21.30
2023-02-19T02:13:59.769Z,21.40
2023-02-19T02:16:29.237Z,19.05
2023-02-19T02:19:06.225Z,18.08
2023-02-19T02:21:44.789Z,21.00
2023-02-19T02:24:44.273Z,23.27
2023-02-19T02:27:29.534Z,21.80
2023-02-19T02:30:21.052Z,21.65
2023-02-19T02:33:11.997Z,18.48
2023-02-19T02:35:47.707Z,15.67
2023-02-19T02:38:17.090Z,19.42
2023-02-19T02:40:45.305Z,22.70
2023-02-19T02:43:14.437Z,19.35
2023-02-19T02:45:41.761Z,20.10
2023-02-19T02:48:38.721Z,19.03
2023-02-19T02:51:43.385Z,17.25
2023-02-19T02:54:40.890Z,17.85
2023-02-19T02:57:14.734Z,18.55
2023-02-19T02:59:54.495Z,20.42
2023-02-19T03:02:26.117Z,16.53
2023-02-19T03:05:39.197Z,18.25
2023-02-19T03:08:31.328Z,20.10
2023-02-19T03:11:24.294Z,19.70
2023-02-19T03:14:22.623Z,21.60
2023-02-19T03:17:10.488Z,19.30
2023-02-19T03:19:42.821Z,24.02
2023-02-19T03:22:14.411Z,21.38
2023-02-19T03:25:11.338Z,21.70
2023-02-19T03:27:40.873Z,17.02
2023-02-19T03:30:18.471Z,16.67
2023-02-19T03:33:09.755Z,15.60
2023-02-19T03:35:47.464Z,13.43
2023-02-19T03:38:22.542Z,16.25
2023-02-19T03:41:31.956Z,17.45
2023-02-19T03:44:12.237Z,13.97
2023-02-19T03:46:48.305Z,17.90
2023-02-19T03:49:24.094Z,16.08
2023-02-19T03:51:56.520Z,16.45
2023-02-19T03:54:51.059Z,21.52
2023-02-19T03:57:44.402Z,19.07
2023-02-19T04:00:18.194Z,17.05
2023-02-19T04:02:53.990Z,18.92
2023-02-19T04:05:26.771Z,17.58
2023-02-19T04:07:59.103Z,14.07
2023-02-19T04:10:32.050Z,16.73
2023-02-19T04:13:03.950Z,17.50
2023-02-19T04:15:33.560Z,18.45
2023-02-19T04:18:08.930Z,17.77
2023-02-19T04:20:46.279Z,21.77
2023-02-19T04:23:14.621Z,17.07
2023-02-19T04:25:43.834Z,20.33
2023-02-19T04:28:10.393Z,16.52
2023-02-19T04:30:36.953Z,23.85
2023-02-19T04:33:03.558Z,21.67
2023-02-19T04:35:30.213Z,19.40
2023-02-19T04:37:56.765Z,22.55
2023-02-19T04:40:23.284Z,21.15
2023-02-19T04:42:49.801Z,21.85
2023-02-19T04:45:16.319Z,20.85
2023-02-19T04:47:42.954Z,19.73
2023-02-19T04:50:09.482Z,19.05
2023-02-19T04:52:36.272Z,18.50
2023-02-19T04:55:02.760Z,19.83
2023-02-19T04:57:29.301Z,15.15
2023-02-19T04:59:55.741Z,12.73
2023-02-19T05:02:22.263Z,15.30
2023-02-19T05:04:49.185Z,15.40
2023-02-19T05:07:15.707Z,13.05
2023-02-19T05:09:42.199Z,16.42
2023-02-19T05:12:08.716Z,16.20
2023-02-19T05:14:35.187Z,17.73
2023-02-19T05:17:01.685Z,17.70
2023-02-19T05:19:28.152Z,14.48
2023-02-19T05:21:54.674Z,18.13
2023-02-19T05:24:21.210Z,17.83
2023-02-19T05:26:48.679Z,14.05
2023-02-19T05:29:15.173Z,16.70
2023-02-19T05:31:42.079Z,17.75
2023-02-19T05:34:08.596Z,16.83
2023-02-19T05:36:37.056Z,16.13
2023-02-19T05:39:03.829Z,20.00
2023-02-19T05:41:30.491Z,14.32
2023-02-19T05:43:57.899Z,14.55
2023-02-19T05:46:27.386Z,16.80
2023-02-19T05:48:54.671Z,14.40
2023-02-19T05:51:23.987Z,15.02
2023-02-19T05:53:51.010Z,14.70
2023-02-19T05:56:26.260Z,16.75
2023-02-19T05:58:53.734Z,18.25
2023-02-19T06:01:22.113Z,16.77
2023-02-19T06:03:48.649Z,12.88
2023-02-19T06:06:17.387Z,16.13
2023-02-19T06:08:43.916Z,16.73
2023-02-19T06:11:10.767Z,15.90
2023-02-19T06:13:37.382Z,16.60
2023-02-19T06:16:04.929Z,26.27
2023-02-19T06:18:31.619Z,18.85
2023-02-19T06:21:09.730Z,19.60
2023-02-19T06:23:37.007Z,28.60
2023-02-19T06:26:33.273Z,21.93
2023-02-19T06:28:59.865Z,20.63
2023-02-19T06:31:26.473Z,29.02
2023-02-19T06:33:53.071Z,26.17
2023-02-19T06:36:20.746Z,23.75
2023-02-19T06:38:47.199Z,25.33
2023-02-19T06:41:14.199Z,21.02
2023-02-19T06:43:41.187Z,24.33
2023-02-19T06:46:08.519Z,20.63
2023-02-19T06:48:35.629Z,22.67
2023-02-19T06:51:02.699Z,28.10
2023-02-19T06:53:29.379Z,28.13
2023-02-19T06:56:04.303Z,30.00
2023-02-19T06:58:31.070Z,29.08
2023-02-19T07:00:57.977Z,24.75
2023-02-19T07:03:26.247Z,22.17
2023-02-19T07:05:52.902Z,20.88
2023-02-19T07:08:19.533Z,19.85
2023-02-19T07:10:46.426Z,24.67
2023-02-19T07:13:12.919Z,29.60
2023-02-19T07:15:39.706Z,26.07
2023-02-19T07:18:10.246Z,20.27
2023-02-19T07:20:37.038Z,21.30
2023-02-19T07:23:03.685Z,24.38
2023-02-19T07:25:30.215Z,25.70
2023-02-19T07:27:56.999Z,19.00
2023-02-19T07:30:23.592Z,23.35
2023-02-19T07:32:50.172Z,20.45
2023-02-19T07:35:16.801Z,23.42
2023-02-19T07:37:43.288Z,18.98
2023-02-19T07:40:10.120Z,21.97
2023-02-19T07:42:36.622Z,19.00
2023-02-19T07:45:03.276Z,20.67
2023-02-19T07:47:29.933Z,24.42
2023-02-19T07:49:56.419Z,20.05
2023-02-19T07:52:23.005Z,23.27
2023-02-19T07:54:49.506Z,23.60
2023-02-19T07:57:16.088Z,20.90
2023-02-19T07:59:42.832Z,23.98
2023-02-19T08:02:34.454Z,20.55
2023-02-19T08:05:01.243Z,22.27
2023-02-19T08:07:35.007Z,21.58
2023-02-19T08:10:21.106Z,20.15
2023-02-19T08:13:17.002Z,21.08
2023-02-19T08:15:43.685Z,17.83
2023-02-19T08:18:10.586Z,13.77
2023-02-19T08:20:37.267Z,14.60
2023-02-19T08:23:05.017Z,13.48
2023-02-19T08:25:31.783Z,16.90
2023-02-19T08:28:00.222Z,14.27
2023-02-19T08:30:28.657Z,10.97
2023-02-19T08:32:55.602Z,15.65
2023-02-19T08:35:22.281Z,15.90
2023-02-19T08:38:06.843Z,15.77
2023-02-19T08:40:33.988Z,14.45
2023-02-19T08:43:08.947Z,15.67
2023-02-19T08:45:37.340Z,14.25
2023-02-19T08:48:04.294Z,14.88
2023-02-19T08:50:30.958Z,12.05
2023-02-19T08:52:59.506Z,9.45
2023-02-19T08:55:26.158Z,7.13
2023-02-19T08:57:52.845Z,8.18
2023-02-19T09:00:19.490Z,9.95
2023-02-19T09:02:46.055Z,8.35
2023-02-19T09:05:12.617Z,7.25
2023-02-19T09:07:39.531Z,7.47
2023-02-19T09:10:06.915Z,7.95
2023-02-19T09:12:33.695Z,7.00
2023-02-19T09:15:00.877Z,7.03
2023-02-19T09:17:27.640Z,6.78
2023-02-19T09:19:54.259Z,9.47
2023-02-19T09:22:20.834Z,7.28
2023-02-19T09:24:47.442Z,7.43
2023-02-19T09:27:18.969Z,6.68
2023-02-19T09:29:46.630Z,7.43
2023-02-19T09:32:14.004Z,5.90
2023-02-19T09:34:40.835Z,6.57
2023-02-19T09:37:07.965Z,5.05
2023-02-19T09:39:35.022Z,6.22
2023-02-19T09:42:09.186Z,7.10
2023-02-19T09:44:39.281Z,6.13
2023-02-19T09:47:18.200Z,6.13
2023-02-19T09:49:52.091Z,5.18
2023-02-19T09:52:43.558Z,5.38
2023-02-19T09:55:16.543Z,5.30
2023-02-19T09:57:44.797Z,5.80
2023-02-19T10:00:11.419Z,6.30
2023-02-19T10:02:38.574Z,5.80
2023-02-19T10:05:12.779Z,6.03
2023-02-19T10:07:43.751Z,5.00
2023-02-19T10:10:13.207Z,6.20
2023-02-19T10:12:45.732Z,7.95
2023-02-19T10:15:37.504Z,4.95
2023-02-19T10:18:05.807Z,6.82
2023-02-19T10:20:32.365Z,4.68
2023-02-19T10:23:07.749Z,5.90
2023-02-19T10:25:35.025Z,4.63
2023-02-19T10:28:03.283Z,5.95
2023-02-19T10:30:33.361Z,5.65
2023-02-19T10:33:09.938Z,6.05
2023-02-19T10:35:50.598Z,5.43
2023-02-19T10:38:18.990Z,5.82
2023-02-19T10:40:46.627Z,5.10
2023-02-19T10:43:31.694Z,6.00
2023-02-19T10:45:59.597Z,4.90
2023-02-19T10:48:31.760Z,5.93
2023-02-19T10:51:10.801Z,5.40
2023-02-19T10:53:49.452Z,4.60
2023-02-19T10:56:24.342Z,4.72
2023-02-19T10:58:51.289Z,3.83
2023-02-19T11:01:23.359Z,5.33
2023-02-19T11:04:13.868Z,4.75
2023-02-19T11:06:40.460Z,4.93
2023-02-19T11:09:24.202Z,4.75
2023-02-19T11:11:52.246Z,5.20
2023-02-19T11:14:22.623Z,4.97
2023-02-19T11:16:58.662Z,5.22
2023-02-19T11:19:27.320Z,4.97
2023-02-19T11:21:54.625Z,3.67
2023-02-19T11:24:30.504Z,4.05
2023-02-19T11:26:58.440Z,4.53
2023-02-19T11:29:28.635Z,6.22
2023-02-19T11:31:56.495Z,5.40
2023-02-19T11:34:29.852Z,4.40
2023-02-19T11:37:24.256Z,4.43
2023-02-19T11:39:51.834Z,4.20
2023-02-19T11:42:32.202Z,5.55
2023-02-19T11:45:28.781Z,4.57
2023-02-19T11:48:30.312Z,4.88
2023-02-19T11:51:15.445Z,5.80
2023-02-19T11:54:24.792Z,4.37
2023-02-19T11:57:09.706Z,6.13
2023-02-19T11:59:54.001Z,6.38
2023-02-19T12:02:35.069Z,6.25
2023-02-19T12:05:31.447Z,8.02
2023-02-19T12:08:28.372Z,5.33
2023-02-19T12:11:04.072Z,7.20
2023-02-19T12:13:51.401Z,6.75
2023-02-19T12:16:27.311Z,6.05
2023-02-19T12:19:07.032Z,8.35
2023-02-19T12:22:18.069Z,7.17
2023-02-19T12:24:57.625Z,8.35
2023-02-19T12:27:42.533Z,8.02
2023-02-19T12:30:21.119Z,7.30
2023-02-19T12:32:53.441Z,5.85
2023-02-19T12:35:25.951Z,5.43
2023-02-19T12:38:14.298Z,5.07
2023-02-19T12:40:49.098Z,5.30
2023-02-19T12:43:21.372Z,5.57
2023-02-19T12:46:00.612Z,4.55
2023-02-19T12:48:46.872Z,5.40
2023-02-19T12:51:23.226Z,5.03
2023-02-19T12:53:59.932Z,5.93
2023-02-19T12:56:37.922Z,5.10
2023-02-19T12:59:36.466Z,4.75
2023-02-19T13:02:16.254Z,4.27
2023-02-19T13:04:49.465Z,5.38
2023-02-19T13:07:21.828Z,4.88
2023-02-19T13:10:08.989Z,6.07
2023-02-19T13:12:39.640Z,5.78
2023-02-19T13:15:34.701Z,5.70
2023-02-19T13:18:03.496Z,5.60
2023-02-19T13:20:32.054Z,5.47
2023-02-19T13:23:19.892Z,6.05
2023-02-19T13:26:00.477Z,5.10
2023-02-19T13:28:39.208Z,6.43
2023-02-19T13:31:30.141Z,5.40
2023-02-19T13:34:05.850Z,4.72
2023-02-19T13:36:36.028Z,4.43
2023-02-19T13:39:06.629Z,5.43
2023-02-19T13:41:42.384Z,5.83
2023-02-19T13:44:18.906Z,5.05
2023-02-19T13:46:47.698Z,4.85
2023-02-19T13:49:29.565Z,4.70
2023-02-19T13:52:18.830Z,4.47
2023-02-19T13:54:45.338Z,5.53
2023-02-19T13:57:17.874Z,5.10
2023-02-19T13:59:45.394Z,5.43
2023-02-19T14:02:21.144Z,5.63
2023-02-19T14:05:00.426Z,4.70
2023-02-19T14:07:26.969Z,4.97
2023-02-19T14:09:54.648Z,5.00
2023-02-19T14:12:22.843Z,3.85
2023-02-19T14:14:54.324Z,4.40
2023-02-19T14:17:36.151Z,4.07
2023-02-19T14:20:34.699Z,5.07
2023-02-19T14:23:14.364Z,3.60
2023-02-19T14:25:48.231Z,5.97
2023-02-19T14:28:45.580Z,4.07
2023-02-19T14:31:26.165Z,3.25
2023-02-19T14:33:56.277Z,3.83
2023-02-19T14:36:48.666Z,4.95
2023-02-19T14:39:29.037Z,5.70
2023-02-19T14:42:01.507Z,5.15
2023-02-19T14:44:37.199Z,4.88
2023-02-19T14:47:07.104Z,4.03
2023-02-19T14:49:46.148Z,3.45
2023-02-19T14:52:20.412Z,3.92
2023-02-19T14:55:05.928Z,2.95
2023-02-19T14:57:36.502Z,3.20
2023-02-19T15:00:21.468Z,4.13
2023-02-19T15:02:49.911Z,2.97
2023-02-19T15:05:18.131Z,3.13
2023-02-19T15:07:45.151Z,4.35
2023-02-19T15:10:14.286Z,3.40
2023-02-19T15:12:47.326Z,4.53
2023-02-19T15:15:26.986Z,4.45
2023-02-19T15:17:54.173Z,3.22
2023-02-19T15:20:24.347Z,3.85
2023-02-19T15:22:52.808Z,4.22
2023-02-19T15:25:22.463Z,4.03
2023-02-19T15:27:49.543Z,3.58
2023-02-19T15:30:28.529Z,3.85
2023-02-19T15:33:00.126Z,6.18
2023-02-19T15:35:28.703Z,4.32
2023-02-19T15:37:55.797Z,4.03
2023-02-19T15:40:29.175Z,4.30
2023-02-19T15:42:57.117Z,5.38
2023-02-19T15:45:29.030Z,4.72
2023-02-19T15:48:11.528Z,5.70
2023-02-19T15:50:44.065Z,8.10
2023-02-19T15:53:29.010Z,5.95
2023-02-19T15:56:08.067Z,6.63
2023-02-19T15:58:45.651Z,5.80
2023-02-19T16:01:25.778Z,5.70
2023-02-19T16:03:56.226Z,6.13
2023-02-19T16:06:24.417Z,10.70
2023-02-19T16:09:06.657Z,7.57
2023-02-19T16:12:00.737Z,13.57
2023-02-19T16:14:32.652Z,5.10
2023-02-19T16:17:01.586Z,3.67
2023-02-19T16:19:30.914Z,4.22
2023-02-19T16:21:58.705Z,3.72
2023-02-19T16:24:32.301Z,4.20
2023-02-19T16:26:59.447Z,4.25
2023-02-19T16:29:32.457Z,3.73
2023-02-19T16:32:05.706Z,2.75
2023-02-19T16:34:47.100Z,2.45
2023-02-19T16:37:41.196Z,1.92
2023-02-19T16:40:07.736Z,2.38
2023-02-19T16:42:35.829Z,2.27
2023-02-19T16:45:02.574Z,3.90
2023-02-19T16:47:34.181Z,2.63
2023-02-19T16:50:03.422Z,3.40
2023-02-19T16:52:30.769Z,3.67
2023-02-19T16:54:57.307Z,2.67
2023-02-19T16:57:23.977Z,7.15
2023-02-19T16:59:50.838Z,4.55
2023-02-19T17:02:23.570Z,3.88
2023-02-19T17:04:51.809Z,4.32
2023-02-19T17:07:18.662Z,3.03
2023-02-19T17:09:45.222Z,3.35
2023-02-19T17:12:13.516Z,2.42
2023-02-19T17:14:40.582Z,3.85
2023-02-19T17:17:07.515Z,6.18
2023-02-19T17:19:34.343Z,4.57
2023-02-19T17:22:01.268Z,3.92
2023-02-19T17:24:27.873Z,2.95
2023-02-19T17:26:54.422Z,5.57
2023-02-19T17:29:21.002Z,3.95
2023-02-19T17:31:47.874Z,3.33
2023-02-19T17:34:14.701Z,3.63
2023-02-19T17:36:43.295Z,2.90
2023-02-19T17:39:15.167Z,3.42
2023-02-19T17:41:42.231Z,2.67
2023-02-19T17:44:09.448Z,3.50
2023-02-19T17:46:36.170Z,2.67
2023-02-19T17:49:02.765Z,2.90
2023-02-19T17:51:29.306Z,3.17
2023-02-19T17:53:55.844Z,3.08
2023-02-19T17:56:25.759Z,2.27
2023-02-19T17:58:53.061Z,2.08
2023-02-19T18:01:19.706Z,1.77
2023-02-19T18:03:46.496Z,2.00
2023-02-19T18:06:13.089Z,0.90
2023-02-19T18:08:39.849Z,2.67
2023-02-19T18:11:07.022Z,2.67
2023-02-19T18:13:33.608Z,2.92
2023-02-19T18:16:00.215Z,2.50
2023-02-19T18:18:27.136Z,2.58
2023-02-19T18:20:53.732Z,2.50
2023-02-19T18:23:20.658Z,3.20
2023-02-19T18:25:47.358Z,3.60
2023-02-19T18:28:14.900Z,3.42
2023-02-19T18:30:41.515Z,4.78
2023-02-19T18:33:10.843Z,4.20
2023-02-19T18:35:38.015Z,4.40
2023-02-19T18:38:05.791Z,3.85
2023-02-19T18:40:32.427Z,4.30
2023-02-19T18:42:59.107Z,3.67
2023-02-19T18:45:25.813Z,3.10
2023-02-19T18:47:52.389Z,3.17
2023-02-19T18:50:19.298Z,4.50
2023-02-19T18:52:45.978Z,5.07
2023-02-19T18:55:12.524Z,3.47
2023-02-19T18:57:38.980Z,3.50
2023-02-19T19:00:07.206Z,2.65
2023-02-19T19:02:47.154Z,3.40
2023-02-19T19:05:18.063Z,3.72
2023-02-19T19:07:44.532Z,2.63
2023-02-19T19:10:11.042Z,3.23
2023-02-19T19:12:37.551Z,2.50
2023-02-19T19:15:04.509Z,4.32
2023-02-19T19:17:31.056Z,4.53
2023-02-19T19:19:57.597Z,2.42
2023-02-19T19:22:25.081Z,3.30
2023-02-19T19:24:51.589Z,3.45
2023-02-19T19:27:19.877Z,4.22
2023-02-19T19:29:47.943Z,4.07
2023-02-19T19:32:14.688Z,4.55
2023-02-19T19:34:42.849Z,5.00
2023-02-19T19:37:09.914Z,6.50
2023-02-19T19:39:36.965Z,6.78
2023-02-19T19:42:03.572Z,5.50
2023-02-19T19:44:30.072Z,7.28
2023-02-19T19:46:56.613Z,6.73
2023-02-19T19:49:23.347Z,7.47
2023-02-19T19:51:50.292Z,6.82
2023-02-19T19:54:16.796Z,6.40
2023-02-19T19:56:46.224Z,7.25
2023-02-19T19:59:16.960Z,9.57
2023-02-19T20:01:55.595Z,10.75
2023-02-19T20:04:23.274Z,8.88
2023-02-19T20:06:50.074Z,8.30
2023-02-19T20:09:17.884Z,8.52
2023-02-19T20:11:49.744Z,8.33
2023-02-19T20:14:17.825Z,11.55
2023-02-19T20:16:44.892Z,8.85
2023-02-19T20:19:11.685Z,9.70
2023-02-19T20:21:38.237Z,7.20
2023-02-19T20:24:05.097Z,7.77
2023-02-19T20:26:31.896Z,8.15
2023-02-19T20:28:58.570Z,8.50
2023-02-19T20:31:25.477Z,7.88
2023-02-19T20:33:52.145Z,8.32
2023-02-19T20:36:20.085Z,9.23
2023-02-19T20:38:47.393Z,8.63
2023-02-19T20:41:14.127Z,6.97
2023-02-19T20:43:40.738Z,6.65
2023-02-19T20:46:07.651Z,6.38
2023-02-19T20:48:34.216Z,7.83
2023-02-19T20:51:00.728Z,7.88
2023-02-19T20:53:28.195Z,8.85
2023-02-19T20:55:56.096Z,8.75
2023-02-19T20:58:23.244Z,8.57
2023-02-19T21:00:50.116Z,6.67
2023-02-19T21:03:16.798Z,7.18
2023-02-19T21:05:43.412Z,8.32
2023-02-19T21:08:11.722Z,8.48
2023-02-19T21:10:38.837Z,9.63
2023-02-19T21:13:05.356Z,7.33
2023-02-19T21:15:31.973Z,5.90
2023-02-19T21:17:58.472Z,7.25
2023-02-19T21:20:24.982Z,6.05
2023-02-19T21:22:51.534Z,6.75
2023-02-19T21:25:17.976Z,7.77
2023-02-19T21:27:44.444Z,6.68
2023-02-19T21:30:11.158Z,6.50
2023-02-19T21:32:37.694Z,8.18
2023-02-19T21:35:04.503Z,5.57
2023-02-19T21:37:30.982Z,5.87
2023-02-19T21:39:58.768Z,7.65
2023-02-19T21:42:25.267Z,7.90
2023-02-19T21:44:51.724Z,7.03
2023-02-19T21:47:18.263Z,8.77
2023-02-19T21:49:44.765Z,11.30
2023-02-19T21:52:11.419Z,7.93
2023-02-19T21:54:37.966Z,8.75
2023-02-19T21:57:04.556Z,7.30
2023-02-19T21:59:31.068Z,8.77
2023-02-19T22:01:57.683Z,8.83
2023-02-19T22:04:24.604Z,8.07
2023-02-19T22:06:54.994Z,9.32
2023-02-19T22:09:21.491Z,14.13
2023-02-19T22:11:47.957Z,8.57
2023-02-19T22:14:14.670Z,11.20
2023-02-19T22:16:41.246Z,11.18
2023-02-19T22:19:07.762Z,9.02
2023-02-19T22:21:34.261Z,9.60
2023-02-19T22:24:02.700Z,8.82
2023-02-19T22:26:34.712Z,10.03
2023-02-19T22:29:07.072Z,10.40
2023-02-19T22:31:34.937Z,10.05
2023-02-19T22:34:01.837Z,10.18
2023-02-19T22:36:33.222Z,12.90
2023-02-19T22:39:00.605Z,14.40
2023-02-19T22:41:27.139Z,12.77
2023-02-19T22:43:58.420Z,13.00
2023-02-19T22:46:28.068Z,10.82
2023-02-19T22:48:54.854Z,10.15
2023-02-19T22:51:22.629Z,10.43
2023-02-19T22:53:51.671Z,10.65
2023-02-19T22:56:20.118Z,10.27
2023-02-19T22:58:46.638Z,12.80
2023-02-19T23:01:14.409Z,11.63
2023-02-19T23:03:52.895Z,10.03
2023-02-19T23:06:31.740Z,11.13
2023-02-19T23:09:03.275Z,11.95
2023-02-19T23:11:33.029Z,11.40
2023-02-19T23:13:59.613Z,12.50
2023-02-19T23:16:26.703Z,12.13
2023-02-19T23:18:53.343Z,12.10
2023-02-19T23:21:21.117Z,13.50
2023-02-19T23:23:47.663Z,12.40
2023-02-19T23:26:15.948Z,12.02
2023-02-19T23:28:43.407Z,10.90
2023-02-19T23:31:11.273Z,10.27
2023-02-19T23:33:37.934Z,11.98
2023-02-19T23:36:05.312Z,11.27
2023-02-19T23:38:31.839Z,12.98
2023-02-19T23:40:58.841Z,12.07
2023-02-19T23:43:25.392Z,12.30
2023-02-19T23:45:52.005Z,14.25
2023-02-19T23:48:18.568Z,12.73
2023-02-19T23:50:45.303Z,11.77
2023-02-19T23:53:11.884Z,11.90
2023-02-19T23:55:38.377Z,10.80
2023-02-19T23:58:04.913Z,12.15
